Data for 04/29/2013

Time Sea-Level Adjusted Pressure Absolute Pressure Temperature Relative Humidity Dew Point   
(mb) (inHg) (mb) (inHg) (C) (F) (%) (C) (F)
00:05 1013 29.91 842 24.86 7.5 45.5 40 -5.4 22.4
00:10 1013 29.91 842 24.86 7.7 45.8 38 -5.8 21.5
00:15 1012 29.88 842 24.86 7.9 46.3 37 -5.9 21.4
00:20 1013 29.91 842 24.86 7.9 46.3 37 -5.7 21.8
00:25 1012 29.88 842 24.86 7.7 45.9 38 -5.5 22.1
00:30 1012 29.88 842 24.86 7.4 45.3 39 -5.6 21.9
00:35 1012 29.88 842 24.86 7.5 45.5 37 -6.2 20.8
00:40 1012 29.88 841 24.83 7.9 46.2 36 -6.1 21
00:45 1012 29.88 841 24.83 8 46.4 38 -5.3 22.5
00:50 1012 29.88 841 24.83 7.4 45.4 40 -5.4 22.3
00:55 1012 29.88 841 24.83 6.9 44.4 42 -5.1 22.9
01:00 1012 29.88 841 24.83 6.3 43.3 43 -5.3 22.5
01:05 1012 29.88 841 24.83 6 42.9 44 -5.2 22.6
01:10 1012 29.88 841 24.83 6 42.8 43 -5.6 21.9
01:15 1012 29.88 841 24.83 6 42.9 44 -5.4 22.3
01:20 1012 29.88 841 24.83 6.5 43.7 39 -6.3 20.6
01:25 1012 29.88 841 24.83 7 44.5 40 -5.8 21.6
01:30 1011 29.85 840 24.81 7 44.7 41 -5.4 22.3
01:35 1011 29.85 840 24.81 6.8 44.3 39 -6 21.1
01:40 1011 29.85 840 24.81 7 44.6 39 -6.1 21
01:45 1011 29.85 840 24.81 7.3 45.1 38 -6 21.2
01:50 1011 29.85 840 24.81 7.3 45.2 39 -5.8 21.5
01:55 1011 29.85 840 24.81 7.3 45.1 39 -5.7 21.7
02:00 1011 29.85 840 24.81 7.2 45 39 -5.9 21.4
02:05 1011 29.85 840 24.81 7.2 45 38 -6.1 21
02:10 1011 29.85 840 24.81 7.4 45.3 38 -6.1 21.1
02:15 1011 29.85 840 24.81 7.4 45.4 39 -5.6 21.9
02:20 1011 29.85 840 24.81 7.1 44.9 39 -6 21.2
02:25 1010 29.83 840 24.81 7.1 44.8 39 -5.9 21.3
02:30 1010 29.83 840 24.81 7.1 44.8 39 -5.8 21.6
02:35 1010 29.83 840 24.81 7.2 45 40 -5.4 22.2
02:40 1010 29.83 840 24.81 7.2 44.9 41 -5.3 22.4
02:45 1010 29.83 839 24.78 7.1 44.7 42 -4.9 23.2
02:50 1010 29.83 839 24.78 6.1 42.9 42 -5.7 21.7
02:55 1010 29.83 840 24.81 6.6 43.9 38 -6.6 20.2
03:00 1010 29.83 840 24.81 7.3 45.1 37 -6.4 20.5
03:05 1010 29.83 839 24.78 7.5 45.5 37 -6.3 20.7
03:10 1010 29.83 839 24.78 7.6 45.7 36 -6.4 20.4
03:15 1010 29.83 839 24.78 7.6 45.6 37 -6 21.2
03:20 1010 29.83 839 24.78 7.3 45.1 41 -5.2 22.6
03:25 1010 29.83 839 24.78 6.4 43.5 42 -5.6 21.8
03:30 1010 29.83 839 24.78 6.6 43.8 41 -5.8 21.6
03:35 1010 29.83 839 24.78 6.4 43.6 42 -5.6 21.9
03:40 1010 29.83 839 24.78 6.4 43.6 38 -6.7 19.9
03:45 1010 29.83 839 24.78 6.9 44.5 39 -6.1 21
03:50 1010 29.83 839 24.78 7 44.6 38 -6.2 20.8
03:55 1010 29.83 839 24.78 7.1 44.8 39 -5.9 21.3
04:00 1010 29.83 839 24.78 6.8 44.3 42 -5.3 22.4
04:05 1010 29.83 839 24.78 6.1 42.9 42 -5.8 21.5
04:10 1009 29.8 839 24.78 6 42.8 42 -6 21.2
04:15 1009 29.8 839 24.78 6 42.9 41 -6.1 21
04:20 1009 29.8 838 24.75 6 42.9 40 -6.6 20.1
04:25 1009 29.8 838 24.75 6.4 43.5 39 -6.5 20.3
04:30 1009 29.8 838 24.75 6.6 43.8 39 -6.4 20.4
04:35 1009 29.8 838 24.75 6.6 43.9 40 -6.1 21
04:40 1009 29.8 838 24.75 6.6 43.9 38 -6.7 20
04:45 1009 29.8 838 24.75 6.9 44.5 37 -6.8 19.8
04:50 1009 29.8 838 24.75 7.2 45 35 -7.4 18.7
04:55 1009 29.8 838 24.75 7.8 46.1 33 -7.4 18.6
05:00 1009 29.8 838 24.75 8.3 46.9 32 -7.6 18.4
05:05 1009 29.8 838 24.75 8.5 47.4 32 -7.2 19
05:10 1009 29.8 838 24.75 8.7 47.7 32 -7.2 19.1
05:15 1009 29.8 838 24.75 8.9 48 32 -7.1 19.3
05:20 1009 29.8 838 24.75 9.1 48.3 31 -7.1 19.1
05:25 1009 29.8 838 24.75 9.1 48.3 30 -7.4 18.7
05:30 1009 29.8 838 24.75 9.5 49.1 27 -8.4 16.9
05:35 1009 29.8 838 24.75 9.9 49.8 28 -7.9 17.8
05:40 1009 29.8 838 24.75 9.8 49.6 29 -7.5 18.6
05:45 1009 29.8 838 24.75 9.7 49.5 28 -7.8 17.9
05:50 1009 29.8 838 24.75 9.9 49.8 27 -8 17.6
05:55 1009 29.8 838 24.75 10.1 50.2 27 -7.8 17.9
06:00 1009 29.8 838 24.75 10.1 50.3 27 -8.2 17.2
06:05 1009 29.8 838 24.75 10.3 50.6 27 -7.9 17.7
06:10 1009 29.8 838 24.75 10.4 50.7 27 -7.9 17.7
06:15 1008 29.77 838 24.75 10.5 50.9 26 -8.1 17.3
06:20 1008 29.77 838 24.75 10.5 50.9 26 -8.1 17.5
06:25 1008 29.77 838 24.75 10.6 51.1 27 -7.8 17.9
06:30 1008 29.77 838 24.75 10.6 51.1 27 -7.8 18
06:35 1008 29.77 838 24.75 10.7 51.3 28 -7.3 18.9
06:40 1008 29.77 837 24.72 10.8 51.4 28 -7.1 19.2
06:45 1008 29.77 837 24.72 11.1 51.9 27 -7 19.4
06:50 1008 29.77 837 24.72 11.2 52.2 28 -6.6 20.2
06:55 1008 29.77 837 24.72 11.2 52.1 28 -6.8 19.7
07:00 1008 29.77 837 24.72 11.2 52.1 28 -6.8 19.8
07:05 1008 29.77 837 24.72 11.2 52.2 29 -6.3 20.6
07:10 1008 29.77 837 24.72 11.4 52.4 28 -6.3 20.6
07:15 1008 29.77 837 24.72 11.5 52.8 29 -6 21.2
07:20 1008 29.77 837 24.72 11.5 52.7 29 -5.8 21.6
07:25 1008 29.77 837 24.72 11.5 52.6 30 -5.5 22.1
07:30 1008 29.77 837 24.72 11.3 52.4 31 -5 23
07:35 1008 29.77 837 24.72 11.1 52.1 33 -4.4 24.1
07:40 1008 29.77 837 24.72 10.9 51.5 36 -3.8 25.2
07:45 1008 29.77 837 24.72 10.5 50.9 38 -3.2 26.2
07:50 1008 29.77 837 24.72 10.1 50.3 40 -2.7 27.2
07:55 1008 29.77 837 24.72 9.8 49.6 43 -2.2 28
08:00 1008 29.77 837 24.72 9.5 49.1 45 -1.9 28.6
08:05 1008 29.77 837 24.72 9.3 48.7 46 -1.7 29
08:10 1008 29.77 837 24.72 9.3 48.7 46 -1.8 28.8
08:15 1008 29.77 837 24.72 9.4 48.9 46 -1.7 28.9
08:20 1007 29.74 837 24.72 9.5 49.2 44 -2.2 28.1
08:25 1007 29.74 837 24.72 9.8 49.6 44 -2 28.4
08:30 1008 29.77 837 24.72 9.9 49.8 43 -2 28.4
08:35 1008 29.77 837 24.72 9.9 49.8 42 -2.2 28
08:40 1007 29.74 837 24.72 10.1 50.1 41 -2.5 27.5
08:45 1007 29.74 837 24.72 10.3 50.5 40 -2.6 27.3
08:50 1007 29.74 837 24.72 10.3 50.6 41 -2.2 28
08:55 1007 29.74 837 24.72 10.3 50.5 42 -1.9 28.6
09:00 1007 29.74 836 24.69 10.1 50.3 44 -1.5 29.2
09:05 1007 29.74 836 24.69 10 50 44 -1.5 29.3
09:10 1007 29.74 836 24.69 10 50.1 45 -1.3 29.7
09:15 1007 29.74 836 24.69 10 49.9 46 -1.1 30
09:20 1007 29.74 836 24.69 9.9 49.7 48 -0.5 31
09:25 1007 29.74 836 24.69 9.7 49.4 49 -0.6 31
09:30 1007 29.74 836 24.69 9.6 49.2 50 -0.4 31.2
09:35 1007 29.74 836 24.69 9.6 49.2 50 -0.3 31.4
09:40 1006 29.71 836 24.69 9.6 49.4 50 -0.3 31.5
09:45 1006 29.71 836 24.69 9.8 49.6 47 -0.9 30.3
09:50 1006 29.71 835 24.66 10.3 50.6 43 -1.6 29.1
09:55 1006 29.71 836 24.69 10.7 51.3 44 -0.9 30.3
10:00 1006 29.71 835 24.66 10.5 51 46 -0.6 30.9
10:05 1006 29.71 835 24.66 10.4 50.8 46 -0.5 31.1
10:10 1006 29.71 835 24.66 10.5 50.8 47 -0.3 31.4
10:15 1006 29.71 835 24.66 10.4 50.7 47 -0.4 31.3
10:20 1006 29.71 835 24.66 10.4 50.7 47 -0.5 31.2
10:25 1006 29.71 835 24.66 10.6 51.2 43 -1.3 29.7
10:30 1006 29.71 835 24.66 11.2 52.2 40 -1.8 28.8
10:35 1006 29.71 835 24.66 11.5 52.7 37 -2.5 27.6
10:40 1005 29.68 835 24.66 11.8 53.2 37 -2.2 28
10:45 1005 29.68 835 24.66 12.4 54.4 32 -3.7 25.3
10:50 1005 29.68 834 24.63 12.7 54.9 32 -3.6 25.4
10:55 1005 29.68 834 24.63 12.8 55.1 31 -3.8 25.2
11:00 1005 29.68 834 24.63 12.9 55.1 31 -4 24.8
11:05 1005 29.68 834 24.63 12.9 55.2 30 -4.1 24.7
11:10 1005 29.68 834 24.63 13 55.3 30 -4 24.9
11:15 1005 29.68 834 24.63 13 55.4 33 -2.8 27
11:20 1005 29.68 834 24.63 12.6 54.6 36 -1.9 28.7
11:25 1004 29.65 834 24.63 12.7 54.8 34 -2.9 26.8
11:30 1004 29.65 834 24.63 12.9 55.3 33 -2.9 26.8
11:35 1004 29.65 834 24.63 13.3 56 30 -3.7 25.3
11:40 1004 29.65 833 24.6 13.6 56.5 30 -3.8 25.2
11:45 1004 29.65 833 24.6 13.6 56.5 30 -3.5 25.7
11:50 1004 29.65 833 24.6 13.1 55.5 31 -3.7 25.4
11:55 1004 29.65 833 24.6 12.8 55.1 31 -3.6 25.5
12:00 1004 29.65 833 24.6 12.7 54.9 31 -4 24.8
12:05 1004 29.65 833 24.6 12.6 54.7 33 -3 26.6
12:10 1004 29.65 833 24.6 12.3 54.2 37 -2 28.4
12:15 1004 29.65 833 24.6 12 53.5 39 -1.6 29
12:20 1004 29.65 833 24.6 11.5 52.7 42 -1 30.3
12:25 1004 29.65 833 24.6 11.1 52 45 -0.3 31.5
12:30 1004 29.65 834 24.63 10.9 51.7 47 0.2 32.4
12:35 1004 29.65 834 24.63 10.5 50.9 54 1.7 35.1
12:40 1004 29.65 833 24.6 9 48.3 61 2 35.5
12:45 1004 29.65 833 24.6 8.5 47.3 57 0.6 33
12:50 1005 29.68 834 24.63 8.6 47.4 56 0.4 32.8
12:55 1005 29.68 834 24.63 8.1 46.5 58 0.4 32.6
13:00 1005 29.68 834 24.63 7.9 46.3 60 0.7 33.3
13:05 1005 29.68 834 24.63 8.1 46.6 58 0.4 32.7
13:10 1005 29.68 834 24.63 8.2 46.7 57 0.2 32.3
13:15 1005 29.68 834 24.63 7.9 46.2 60 0.6 33.1
13:20 1005 29.68 834 24.63 7.6 45.7 57 -0.3 31.5
13:25 1005 29.68 835 24.66 7.4 45.3 59 -0.1 31.9
13:30 1005 29.68 835 24.66 7.1 44.9 61 0.2 32.3
13:35 1006 29.71 835 24.66 6.8 44.2 64 0.4 32.7
13:40 1006 29.71 835 24.66 6.7 44.1 62 0 32.1
13:45 1006 29.71 835 24.66 6.6 44 63 0 32
13:50 1006 29.71 835 24.66 6.6 44 57 -1.2 29.8
13:55 1006 29.71 835 24.66 7 44.5 56 -1.1 29.9
14:00 1006 29.71 835 24.66 7.2 45 54 -1.5 29.3
14:05 1005 29.68 835 24.66 7.4 45.3 55 -1.1 30
14:10 1005 29.68 835 24.66 7.6 45.7 53 -1.4 29.5
14:15 1005 29.68 835 24.66 7.8 46 51 -1.8 28.8
14:20 1006 29.71 835 24.66 7.9 46.1 49 -2.1 28.3
14:25 1006 29.71 835 24.66 7.9 46.3 46 -3 26.6
14:30 1006 29.71 835 24.66 8.1 46.6 48 -2.4 27.8
14:35 1006 29.71 835 24.66 8.1 46.6 47 -2.6 27.3
14:40 1006 29.71 835 24.66 8.1 46.6 46 -2.9 26.7
14:45 1006 29.71 835 24.66 8.1 46.5 45 -3.2 26.3
14:50 1006 29.71 835 24.66 8.1 46.6 44 -3.5 25.6
14:55 1006 29.71 835 24.66 8.2 46.7 43 -3.6 25.4
15:00 1006 29.71 835 24.66 8.2 46.7 44 -3.4 26
15:05 1006 29.71 835 24.66 8.4 47.1 44 -3.2 26.2
15:10 1006 29.71 835 24.66 8.5 47.2 44 -3 26.5
15:15 1006 29.71 835 24.66 8.6 47.4 43 -3.2 26.2
15:20 1006 29.71 835 24.66 8.4 47.2 44 -3.2 26.2
15:25 1006 29.71 835 24.66 8.4 47.2 41 -4 24.8
15:30 1006 29.71 835 24.66 8.4 47 43 -3.4 25.8
15:35 1006 29.71 835 24.66 8.5 47.3 40 -4.2 24.4
15:40 1006 29.71 835 24.66 8.6 47.4 41 -4 24.8
15:45 1006 29.71 835 24.66 8.6 47.4 42 -3.7 25.4
15:50 1006 29.71 835 24.66 8.5 47.3 41 -4.2 24.5
15:55 1006 29.71 835 24.66 8.4 47.2 41 -4 24.8
16:00 1006 29.71 835 24.66 8.5 47.3 42 -3.7 25.3
16:05 1006 29.71 835 24.66 8.7 47.7 41 -3.8 25.2
16:10 1006 29.71 835 24.66 9 48.1 38 -4.6 23.8
16:15 1006 29.71 835 24.66 8.7 47.7 51 -0.8 30.6
16:20 1006 29.71 835 24.66 8.2 46.8 53 -0.8 30.5
16:25 1006 29.71 835 24.66 8 46.4 55 -0.5 31.1
16:30 1006 29.71 835 24.66 8.4 47 39 -4.9 23.2
16:35 1006 29.71 835 24.66 9.1 48.5 29 -8.1 17.4
16:40 1006 29.71 835 24.66 9.2 48.6 30 -7.5 18.4
16:45 1006 29.71 835 24.66 9 48.2 30 -7.7 18.1
16:50 1006 29.71 836 24.69 8.8 47.9 29 -8.3 17
16:55 1006 29.71 835 24.66 8.8 47.8 30 -8 17.7
17:00 1006 29.71 836 24.69 8.9 47.9 31 -7.5 18.6
17:05 1007 29.74 836 24.69 9.1 48.3 32 -6.9 19.6
17:10 1007 29.74 836 24.69 9.2 48.6 32 -6.8 19.8
17:15 1007 29.74 836 24.69 8.9 48 34 -6.3 20.7
17:20 1007 29.74 836 24.69 8.7 47.7 34 -6.4 20.5
17:25 1007 29.74 836 24.69 8.7 47.6 33 -6.9 19.6
17:30 1007 29.74 836 24.69 8.7 47.6 33 -6.9 19.6
17:35 1007 29.74 836 24.69 8.7 47.6 32 -7 19.4
17:40 1007 29.74 836 24.69 8.6 47.5 29 -8.2 17.2
17:45 1007 29.74 837 24.72 8 46.5 31 -7.9 17.8
17:50 1008 29.77 837 24.72 7.2 45 34 -7.7 18.2
17:55 1008 29.77 837 24.72 6.8 44.2 36 -7.4 18.6
18:00 1008 29.77 837 24.72 6.6 43.9 36 -7.4 18.8
18:05 1008 29.77 837 24.72 6.4 43.6 36 -7.5 18.4
18:10 1008 29.77 837 24.72 6.3 43.4 36 -7.5 18.4
18:15 1008 29.77 837 24.72 6.3 43.4 35 -8.2 17.3
18:20 1008 29.77 837 24.72 6.3 43.3 34 -8.5 16.7
18:25 1008 29.77 838 24.75 6.3 43.4 32 -9 15.8
18:30 1008 29.77 838 24.75 6.4 43.5 32 -9.1 15.7
18:35 1008 29.77 838 24.75 6.3 43.4 33 -8.9 16
18:40 1008 29.77 838 24.75 6.3 43.3 34 -8.6 16.6
18:45 1009 29.8 838 24.75 6.1 42.9 34 -8.5 16.8
18:50 1009 29.8 838 24.75 5.9 42.7 33 -9.1 15.7
18:55 1009 29.8 838 24.75 5.8 42.4 34 -9 15.8
19:00 1009 29.8 838 24.75 5.7 42.3 34 -9 15.9
19:05 1009 29.8 838 24.75 5.6 42.1 35 -8.8 16.1
19:10 1009 29.8 838 24.75 5.5 41.8 35 -8.8 16.1
19:15 1009 29.8 838 24.75 5.4 41.7 35 -8.8 16.2
19:20 1009 29.8 838 24.75 5.2 41.3 36 -8.7 16.4
19:25 1009 29.8 839 24.78 4.9 40.9 37 -8.7 16.3
19:30 1009 29.8 839 24.78 4.8 40.7 37 -8.7 16.4
19:35 1009 29.8 839 24.78 4.8 40.6 37 -8.8 16.2
19:40 1010 29.83 839 24.78 4.7 40.5 35 -9.5 14.8
19:45 1010 29.83 839 24.78 4.6 40.3 35 -9.7 14.6
19:50 1010 29.83 839 24.78 4.5 40.1 35 -9.6 14.7
19:55 1010 29.83 839 24.78 4.4 39.9 36 -9.4 15.1
20:00 1010 29.83 839 24.78 4.3 39.7 37 -9.3 15.2
20:05 1010 29.83 839 24.78 4.2 39.5 37 -9.1 15.6
20:10 1010 29.83 840 24.81 4.1 39.3 38 -9 15.9
20:15 1010 29.83 840 24.81 3.9 39.1 39 -8.8 16.2
20:20 1011 29.85 840 24.81 3.8 38.8 38 -9.1 15.6
20:25 1011 29.85 840 24.81 3.6 38.5 39 -9.2 15.4
20:30 1011 29.85 840 24.81 3.5 38.2 39 -9.1 15.6
20:35 1011 29.85 840 24.81 3.3 38 40 -9 15.7
20:40 1011 29.85 840 24.81 3.1 37.5 41 -8.9 16
20:45 1011 29.85 840 24.81 2.8 37.1 43 -8.4 16.8
20:50 1011 29.85 840 24.81 2.7 36.9 45 -7.9 17.7
20:55 1011 29.85 840 24.81 2.6 36.7 46 -7.8 17.9
21:00 1011 29.85 840 24.81 2.5 36.6 47 -7.7 18.1
21:05 1011 29.85 840 24.81 2.4 36.3 47 -7.7 18.1
21:10 1011 29.85 840 24.81 2.3 36.1 48 -7.7 18.2
21:15 1011 29.85 840 24.81 2.1 35.8 49 -7.6 18.3
21:20 1011 29.85 840 24.81 1.9 35.5 50 -7.5 18.4
21:25 1011 29.85 840 24.81 1.7 35.1 51 -7.4 18.7
21:30 1011 29.85 840 24.81 1.6 35 51 -7.4 18.7
21:35 1011 29.85 840 24.81 1.5 34.8 51 -7.4 18.6
21:40 1011 29.85 841 24.83 1.4 34.5 52 -7.3 18.9
21:45 1011 29.85 841 24.83 1.3 34.3 54 -7.1 19.3
21:50 1011 29.85 841 24.83 1.1 33.9 56 -6.9 19.6
21:55 1011 29.85 841 24.83 1.1 33.9 55 -7.1 19.2
22:00 1011 29.85 841 24.83 1.3 34.4 54 -7.1 19.3
22:05 1012 29.88 841 24.83 1.6 34.8 52 -7.2 19
22:10 1012 29.88 841 24.83 1.8 35.2 51 -7.3 18.9
22:15 1012 29.88 841 24.83 1.9 35.4 50 -7.5 18.4
22:20 1012 29.88 841 24.83 2 35.5 48 -7.8 17.9
22:25 1012 29.88 841 24.83 2 35.7 48 -7.8 18
22:30 1012 29.88 841 24.83 2 35.7 46 -8.3 17
22:35 1012 29.88 841 24.83 2.1 35.7 44 -8.8 16.1
22:40 1012 29.88 841 24.83 2.1 35.8 45 -8.7 16.4
22:45 1012 29.88 841 24.83 2.1 35.8 45 -8.6 16.6
22:50 1012 29.88 841 24.83 2 35.7 46 -8.5 16.8
22:55 1012 29.88 841 24.83 1.9 35.4 47 -8.3 17
23:00 1012 29.88 841 24.83 1.7 35.1 47 -8.3 17
23:05 1012 29.88 841 24.83 1.6 34.9 47 -8.5 16.6
23:10 1012 29.88 841 24.83 1.5 34.7 47 -8.7 16.3
23:15 1012 29.88 841 24.83 1.5 34.7 47 -8.7 16.3
23:20 1012 29.88 841 24.83 1.5 34.6 47 -8.7 16.4
23:25 1012 29.88 841 24.83 1.3 34.4 47 -8.7 16.3
23:30 1012 29.88 841 24.83 1.3 34.3 47 -8.8 16.2
23:35 1012 29.88 841 24.83 1.2 34.2 47 -8.8 16.1
23:40 1012 29.88 841 24.83 1.2 34.2 48 -8.7 16.3
23:45 1012 29.88 841 24.83 1.2 34.1 48 -8.7 16.4
23:50 1012 29.88 841 24.83 1.1 34 49 -8.5 16.7
23:55 1012 29.88 841 24.83 1.1 33.9 48 -8.7 16.3
24:00 1012 29.88 841 24.83 1 33.8 48 -8.8 16.2